createdAt,value
2018-03-06T00:00:15.261Z,0
2018-03-06T00:00:55.809Z,0
2018-03-06T00:01:36.366Z,0
2018-03-06T00:02:16.928Z,0
2018-03-06T00:02:57.507Z,0
2018-03-06T00:03:38.066Z,0
2018-03-06T00:04:18.656Z,0
2018-03-06T00:04:59.209Z,0
2018-03-06T00:05:39.763Z,0
2018-03-06T00:06:20.337Z,0
2018-03-06T00:07:00.882Z,0
2018-03-06T00:07:41.458Z,0
2018-03-06T00:08:22.261Z,0
2018-03-06T00:09:02.715Z,0
2018-03-06T00:09:43.350Z,0
2018-03-06T00:10:23.969Z,0
2018-03-06T00:11:04.528Z,0
2018-03-06T00:11:45.090Z,0
2018-03-06T00:12:25.636Z,0
2018-03-06T00:13:06.202Z,0
2018-03-06T00:13:46.779Z,0
2018-03-06T00:14:27.499Z,0
2018-03-06T00:15:08.058Z,0
2018-03-06T00:15:48.622Z,0
2018-03-06T00:16:29.154Z,0
2018-03-06T00:17:09.714Z,0
2018-03-06T00:17:50.288Z,0
2018-03-06T00:18:30.845Z,0
2018-03-06T00:19:11.381Z,0
2018-03-06T00:19:51.937Z,0
2018-03-06T00:20:32.485Z,0
2018-03-06T00:21:13.038Z,0
2018-03-06T00:21:53.600Z,0
2018-03-06T00:22:34.158Z,0
2018-03-06T00:23:14.724Z,0
2018-03-06T00:23:55.282Z,0
2018-03-06T00:24:35.844Z,0
2018-03-06T00:25:16.389Z,0
2018-03-06T00:25:56.933Z,0
2018-03-06T00:26:37.494Z,0
2018-03-06T00:27:18.064Z,0
2018-03-06T00:27:58.620Z,0
2018-03-06T00:28:39.170Z,0
2018-03-06T00:29:19.732Z,0
2018-03-06T00:30:00.289Z,0
2018-03-06T00:30:40.865Z,0
2018-03-06T00:31:21.419Z,0
2018-03-06T00:32:01.975Z,0
2018-03-06T00:32:42.561Z,0
2018-03-06T00:33:23.079Z,0
2018-03-06T00:34:03.642Z,0
2018-03-06T00:34:44.195Z,0
2018-03-06T00:35:24.750Z,0
2018-03-06T00:36:05.305Z,0
2018-03-06T00:36:45.857Z,0
2018-03-06T00:37:26.404Z,0
2018-03-06T00:38:06.966Z,0
2018-03-06T00:38:47.534Z,0
2018-03-06T00:39:28.087Z,0
2018-03-06T00:40:08.636Z,0
2018-03-06T00:40:49.194Z,0
2018-03-06T00:41:29.755Z,0
2018-03-06T00:42:10.308Z,0
2018-03-06T00:42:50.861Z,0
2018-03-06T00:43:31.423Z,0
2018-03-06T00:44:12.005Z,0
2018-03-06T00:44:52.557Z,0
2018-03-06T00:45:33.108Z,0
2018-03-06T00:46:13.675Z,0
2018-03-06T00:46:54.266Z,0
2018-03-06T00:47:34.823Z,0
2018-03-06T00:48:15.395Z,0
2018-03-06T00:48:55.956Z,0
2018-03-06T00:49:36.517Z,0
2018-03-06T00:50:17.068Z,0
2018-03-06T00:50:57.637Z,0
2018-03-06T00:51:38.193Z,0
2018-03-06T00:52:18.769Z,0
2018-03-06T00:52:59.326Z,0
2018-03-06T00:53:39.896Z,0
2018-03-06T00:54:20.439Z,0
2018-03-06T00:55:00.999Z,0
2018-03-06T00:55:41.555Z,0
2018-03-06T00:56:22.137Z,0
2018-03-06T00:57:02.653Z,0
2018-03-06T00:57:43.227Z,0
2018-03-06T00:58:23.770Z,0
2018-03-06T00:59:04.316Z,0
2018-03-06T00:59:44.877Z,0
2018-03-06T01:00:25.416Z,0
2018-03-06T01:01:05.955Z,0
2018-03-06T01:01:46.506Z,0
2018-03-06T01:02:27.110Z,0
2018-03-06T01:03:07.614Z,0
2018-03-06T01:03:48.170Z,0
2018-03-06T01:04:28.725Z,0
2018-03-06T01:05:09.280Z,0
2018-03-06T01:05:49.821Z,0
2018-03-06T01:06:30.383Z,0
2018-03-06T01:07:10.928Z,0
2018-03-06T01:07:51.490Z,0
2018-03-06T01:08:32.044Z,0
2018-03-06T01:09:12.625Z,0
2018-03-06T01:09:53.171Z,0
2018-03-06T01:10:33.732Z,0
2018-03-06T01:11:14.281Z,0
2018-03-06T01:11:54.835Z,0
2018-03-06T01:12:35.392Z,0
2018-03-06T01:13:15.958Z,0
2018-03-06T01:13:56.514Z,0
2018-03-06T01:14:37.087Z,0
2018-03-06T01:15:17.622Z,0
2018-03-06T01:15:58.170Z,0
2018-03-06T01:16:38.727Z,0
2018-03-06T01:17:19.273Z,0
2018-03-06T01:17:59.829Z,0
2018-03-06T01:18:40.386Z,0
2018-03-06T01:19:20.942Z,0
2018-03-06T01:20:01.516Z,0
2018-03-06T01:20:42.068Z,0
2018-03-06T01:21:22.622Z,0
2018-03-06T01:22:03.168Z,0
2018-03-06T01:22:43.693Z,0
2018-03-06T01:23:24.244Z,0
2018-03-06T01:24:04.809Z,0
2018-03-06T01:24:45.383Z,0
2018-03-06T01:25:25.943Z,0
2018-03-06T01:26:06.521Z,0
2018-03-06T01:26:47.067Z,0
2018-03-06T01:27:27.635Z,0
2018-03-06T01:28:08.232Z,0
2018-03-06T01:28:48.772Z,0
2018-03-06T01:29:29.341Z,0
2018-03-06T01:30:09.905Z,0
2018-03-06T01:30:50.445Z,0
2018-03-06T01:31:31.058Z,0
2018-03-06T01:32:11.562Z,0
2018-03-06T01:32:52.157Z,0
2018-03-06T01:33:32.706Z,0
2018-03-06T01:34:13.260Z,0
2018-03-06T01:34:53.831Z,0
2018-03-06T01:35:34.384Z,0
2018-03-06T01:36:14.946Z,0
2018-03-06T01:36:55.516Z,0
2018-03-06T01:37:36.123Z,0
2018-03-06T01:38:16.688Z,0
2018-03-06T01:38:57.218Z,0
2018-03-06T01:39:37.769Z,0
2018-03-06T01:40:18.370Z,0
2018-03-06T01:40:58.937Z,0
2018-03-06T01:41:39.487Z,0
2018-03-06T01:42:20.058Z,0
2018-03-06T01:43:00.592Z,0
2018-03-06T01:43:41.198Z,0
2018-03-06T01:44:21.712Z,0
2018-03-06T01:45:02.328Z,0
2018-03-06T01:45:42.896Z,0
2018-03-06T01:46:23.456Z,0
2018-03-06T01:47:04.019Z,0
2018-03-06T01:47:44.586Z,0
2018-03-06T01:48:25.116Z,0
2018-03-06T01:49:05.688Z,0
2018-03-06T01:49:46.254Z,0
2018-03-06T01:50:26.816Z,0
2018-03-06T01:51:07.373Z,0
2018-03-06T01:51:47.937Z,0
2018-03-06T01:52:28.497Z,0
2018-03-06T01:53:09.060Z,0
2018-03-06T01:53:49.621Z,0
2018-03-06T01:54:30.204Z,0
2018-03-06T01:55:10.748Z,0
2018-03-06T01:55:51.328Z,0
2018-03-06T01:56:31.886Z,0
2018-03-06T01:57:12.452Z,0
2018-03-06T01:57:53.008Z,0
2018-03-06T01:58:33.654Z,0
2018-03-06T01:59:14.209Z,0
2018-03-06T01:59:54.806Z,0
2018-03-06T02:00:35.381Z,0
2018-03-06T02:01:15.936Z,0
2018-03-06T02:01:56.489Z,0
2018-03-06T02:02:37.032Z,0
2018-03-06T02:03:17.598Z,0
2018-03-06T02:03:58.164Z,0
2018-03-06T02:04:38.716Z,0
2018-03-06T02:05:19.333Z,0
2018-03-06T02:05:59.928Z,0
2018-03-06T02:06:40.463Z,0
2018-03-06T02:07:21.022Z,0
2018-03-06T02:08:01.632Z,0
2018-03-06T02:08:42.207Z,0
2018-03-06T02:09:22.767Z,0
2018-03-06T02:10:03.323Z,0
2018-03-06T02:10:43.886Z,0
2018-03-06T02:11:24.459Z,0
2018-03-06T02:12:05.032Z,0
2018-03-06T02:12:45.559Z,0
2018-03-06T02:13:26.125Z,0
2018-03-06T02:14:06.687Z,0
2018-03-06T02:14:47.260Z,0
2018-03-06T02:15:27.822Z,0
2018-03-06T02:16:08.396Z,0
2018-03-06T02:16:48.933Z,0
2018-03-06T02:17:29.490Z,0
2018-03-06T02:18:10.038Z,0
2018-03-06T02:18:50.587Z,0
2018-03-06T02:19:31.176Z,0
2018-03-06T02:20:11.699Z,0
2018-03-06T02:20:52.248Z,0
2018-03-06T02:21:32.800Z,0
2018-03-06T02:22:13.374Z,0
2018-03-06T02:22:53.927Z,0
2018-03-06T02:23:34.488Z,0
2018-03-06T02:24:15.056Z,0
2018-03-06T02:24:55.618Z,0
2018-03-06T02:25:36.180Z,0
2018-03-06T02:26:16.877Z,0
2018-03-06T02:26:57.444Z,0
2018-03-06T02:27:38.049Z,0
2018-03-06T02:28:18.636Z,0
2018-03-06T02:28:59.177Z,0
2018-03-06T02:29:39.750Z,0
2018-03-06T02:30:20.313Z,0
2018-03-06T02:31:00.867Z,0
2018-03-06T02:31:41.414Z,0
2018-03-06T02:32:21.984Z,0
2018-03-06T02:33:02.538Z,0
2018-03-06T02:33:43.098Z,0
2018-03-06T02:34:23.700Z,0
2018-03-06T02:35:04.256Z,0
2018-03-06T02:35:44.816Z,0
2018-03-06T02:36:25.369Z,0
2018-03-06T02:37:05.936Z,0
2018-03-06T02:37:46.493Z,0
2018-03-06T02:38:27.042Z,0
2018-03-06T02:39:07.609Z,0
2018-03-06T02:39:48.159Z,0
2018-03-06T02:40:28.712Z,0
2018-03-06T02:41:09.262Z,0
2018-03-06T02:41:49.815Z,0
2018-03-06T02:42:30.377Z,0
2018-03-06T02:43:10.906Z,0
2018-03-06T02:43:51.456Z,0
2018-03-06T02:44:32.012Z,0
2018-03-06T02:45:12.551Z,0
2018-03-06T02:45:53.095Z,0
2018-03-06T02:46:33.651Z,0
2018-03-06T02:47:14.221Z,0
2018-03-06T02:47:54.768Z,0
2018-03-06T02:48:35.323Z,0
2018-03-06T02:49:15.872Z,0
2018-03-06T02:49:56.413Z,0
2018-03-06T02:50:36.974Z,0
2018-03-06T02:51:17.524Z,0
2018-03-06T02:51:58.085Z,0
2018-03-06T02:52:38.635Z,0
2018-03-06T02:53:19.176Z,0
2018-03-06T02:53:59.728Z,0
2018-03-06T02:54:40.302Z,0
2018-03-06T02:55:20.884Z,0
2018-03-06T02:56:01.441Z,0
2018-03-06T02:56:41.989Z,0
2018-03-06T02:57:22.532Z,0
2018-03-06T02:58:03.101Z,0
2018-03-06T02:58:43.662Z,0
2018-03-06T02:59:24.214Z,0
2018-03-06T03:00:04.762Z,0
2018-03-06T03:00:45.322Z,0
2018-03-06T03:01:25.885Z,0
2018-03-06T03:02:06.442Z,0
2018-03-06T03:02:46.998Z,0
2018-03-06T03:03:27.541Z,0
2018-03-06T03:04:08.093Z,0
2018-03-06T03:04:48.643Z,0
2018-03-06T03:05:29.198Z,0
2018-03-06T03:06:09.780Z,0
2018-03-06T03:06:50.340Z,0
2018-03-06T03:07:30.899Z,0
2018-03-06T03:08:11.449Z,0
2018-03-06T03:08:52.008Z,0
2018-03-06T03:09:32.573Z,0
2018-03-06T03:10:13.125Z,0
2018-03-06T03:10:53.685Z,0
2018-03-06T03:11:34.237Z,0
2018-03-06T03:12:14.787Z,0
2018-03-06T03:12:55.346Z,0
2018-03-06T03:13:35.903Z,0
2018-03-06T03:14:16.475Z,0
2018-03-06T03:14:57.083Z,0
2018-03-06T03:15:37.608Z,0
2018-03-06T03:16:18.184Z,0
2018-03-06T03:16:58.743Z,0
2018-03-06T03:17:39.296Z,0
2018-03-06T03:18:19.868Z,0
2018-03-06T03:19:00.489Z,0
2018-03-06T03:19:41.044Z,0
2018-03-06T03:20:21.588Z,0
2018-03-06T03:21:02.143Z,0
2018-03-06T03:21:42.668Z,0
2018-03-06T03:22:23.238Z,0
2018-03-06T03:23:03.797Z,0
2018-03-06T03:23:44.341Z,0
2018-03-06T03:24:24.895Z,0
2018-03-06T03:25:05.449Z,0
2018-03-06T03:25:46.017Z,0
2018-03-06T03:26:26.531Z,0
2018-03-06T03:27:07.093Z,0
2018-03-06T03:27:47.653Z,0
2018-03-06T03:28:28.207Z,0
2018-03-06T03:29:08.761Z,0
2018-03-06T03:29:49.317Z,0
2018-03-06T03:30:29.858Z,0
2018-03-06T03:31:10.419Z,0
2018-03-06T03:31:50.978Z,0
2018-03-06T03:32:31.539Z,0
2018-03-06T03:33:12.110Z,0
2018-03-06T03:33:52.642Z,0
2018-03-06T03:34:33.209Z,0
2018-03-06T03:35:13.796Z,0
2018-03-06T03:35:54.356Z,0
2018-03-06T03:36:34.909Z,0
2018-03-06T03:37:15.468Z,0
2018-03-06T03:37:56.693Z,0
2018-03-06T03:38:37.233Z,0
2018-03-06T03:39:17.793Z,0
2018-03-06T03:39:58.371Z,0
2018-03-06T03:40:38.934Z,0
2018-03-06T03:41:19.482Z,0
2018-03-06T03:42:00.034Z,0
2018-03-06T03:42:40.607Z,0
2018-03-06T03:43:21.238Z,0
2018-03-06T03:44:01.846Z,0
2018-03-06T03:44:42.338Z,0
2018-03-06T03:45:22.892Z,0
2018-03-06T03:46:03.443Z,0
2018-03-06T03:46:44.005Z,0
2018-03-06T03:47:24.542Z,0
2018-03-06T03:48:05.101Z,0
2018-03-06T03:48:45.656Z,0
2018-03-06T03:49:26.219Z,0
2018-03-06T03:50:06.786Z,0
2018-03-06T03:50:47.357Z,0
2018-03-06T03:51:27.907Z,0
2018-03-06T03:52:08.463Z,0
2018-03-06T03:52:49.030Z,0
2018-03-06T03:53:29.603Z,0
2018-03-06T03:54:10.148Z,0
2018-03-06T03:54:50.701Z,0
2018-03-06T03:55:31.253Z,0
2018-03-06T03:56:11.801Z,0
2018-03-06T03:56:52.344Z,0
2018-03-06T03:57:32.923Z,0
2018-03-06T03:58:13.473Z,0
2018-03-06T03:58:54.042Z,0
2018-03-06T03:59:34.594Z,0
2018-03-06T04:00:15.153Z,0
2018-03-06T04:00:55.725Z,0
2018-03-06T04:01:36.278Z,0
2018-03-06T04:02:16.886Z,0
2018-03-06T04:02:57.438Z,0
2018-03-06T04:03:37.978Z,0
2018-03-06T04:04:18.569Z,0
2018-03-06T04:04:59.374Z,0
2018-03-06T04:05:39.953Z,0
2018-03-06T04:06:20.516Z,0
2018-03-06T04:07:01.077Z,0
2018-03-06T04:07:41.648Z,0
2018-03-06T04:08:22.216Z,0
2018-03-06T04:09:02.793Z,0
2018-03-06T04:09:43.330Z,0
2018-03-06T04:10:23.919Z,0
2018-03-06T04:11:04.470Z,0
2018-03-06T04:11:45.032Z,0
2018-03-06T04:12:25.598Z,0
2018-03-06T04:13:06.158Z,0
2018-03-06T04:13:46.726Z,0
2018-03-06T04:14:27.313Z,0
2018-03-06T04:15:07.876Z,0
2018-03-06T04:15:48.406Z,0
2018-03-06T04:16:28.964Z,0
2018-03-06T04:17:09.507Z,0
2018-03-06T04:17:50.062Z,0
2018-03-06T04:18:30.601Z,0
2018-03-06T04:19:11.160Z,0
2018-03-06T04:19:51.719Z,0
2018-03-06T04:20:32.265Z,0
2018-03-06T04:21:12.816Z,0
2018-03-06T04:21:53.368Z,0
2018-03-06T04:22:33.904Z,0
2018-03-06T04:23:14.473Z,0
2018-03-06T04:23:55.023Z,0
2018-03-06T04:24:35.767Z,0
2018-03-06T04:25:16.342Z,0
2018-03-06T04:25:56.872Z,0
2018-03-06T04:26:37.446Z,0
2018-03-06T04:27:18.013Z,0
2018-03-06T04:27:58.566Z,0
2018-03-06T04:28:39.132Z,0
2018-03-06T04:29:19.685Z,0
2018-03-06T04:30:00.248Z,0
2018-03-06T04:30:40.806Z,0
2018-03-06T04:31:21.365Z,0
2018-03-06T04:32:02.046Z,0
2018-03-06T04:32:42.608Z,0
2018-03-06T04:33:23.178Z,0
2018-03-06T04:34:03.724Z,0
2018-03-06T04:34:44.286Z,0
2018-03-06T04:35:24.851Z,0
2018-03-06T04:36:05.400Z,0
2018-03-06T04:36:45.965Z,0
2018-03-06T04:37:26.548Z,0
2018-03-06T04:38:07.106Z,0
2018-03-06T04:38:47.690Z,0
2018-03-06T04:39:28.256Z,0
2018-03-06T04:40:08.816Z,0
2018-03-06T04:40:49.370Z,0
2018-03-06T04:41:29.910Z,0
2018-03-06T04:42:10.472Z,0
2018-03-06T04:42:51.034Z,0
2018-03-06T04:43:31.605Z,0
2018-03-06T04:44:12.181Z,0
2018-03-06T04:44:52.730Z,0
2018-03-06T04:45:33.294Z,0
2018-03-06T04:46:13.901Z,0
2018-03-06T04:46:54.441Z,0
2018-03-06T04:47:35.007Z,0
2018-03-06T04:48:15.548Z,0
2018-03-06T04:48:56.113Z,0
2018-03-06T04:49:36.661Z,0
2018-03-06T04:50:17.214Z,0
2018-03-06T04:50:57.774Z,0
2018-03-06T04:51:38.340Z,0
2018-03-06T04:52:18.903Z,0
2018-03-06T04:52:59.466Z,0
2018-03-06T04:53:40.060Z,0
2018-03-06T04:54:20.596Z,0
2018-03-06T04:55:01.155Z,0
2018-03-06T04:55:41.708Z,0
2018-03-06T04:56:22.266Z,0
2018-03-06T04:57:02.819Z,0
2018-03-06T04:57:43.358Z,0
2018-03-06T04:58:23.923Z,0
2018-03-06T04:59:04.482Z,0
2018-03-06T04:59:45.046Z,0
2018-03-06T05:00:25.616Z,0
2018-03-06T05:01:06.136Z,0
2018-03-06T05:01:46.719Z,0
2018-03-06T05:02:27.293Z,0
2018-03-06T05:03:07.817Z,0
2018-03-06T05:03:48.393Z,0
2018-03-06T05:04:28.945Z,0
2018-03-06T05:05:09.485Z,0
2018-03-06T05:05:50.036Z,0
2018-03-06T05:06:30.669Z,0
2018-03-06T05:07:11.164Z,0
2018-03-06T05:07:51.713Z,0
2018-03-06T05:08:32.288Z,0
2018-03-06T05:09:12.832Z,0
2018-03-06T05:09:53.390Z,0
2018-03-06T05:10:33.931Z,0
2018-03-06T05:11:14.487Z,0
2018-03-06T05:11:55.028Z,0
2018-03-06T05:12:35.587Z,0
2018-03-06T05:13:16.171Z,0
2018-03-06T05:13:56.760Z,0
2018-03-06T05:14:37.310Z,0
2018-03-06T05:15:17.863Z,0
2018-03-06T05:15:58.431Z,0
2018-03-06T05:16:38.965Z,0
2018-03-06T05:17:19.507Z,0
2018-03-06T05:18:00.087Z,0
2018-03-06T05:18:40.614Z,0
2018-03-06T05:19:21.194Z,0
2018-03-06T05:20:01.739Z,0
2018-03-06T05:20:42.282Z,0
2018-03-06T05:21:22.830Z,0
2018-03-06T05:22:03.399Z,0
2018-03-06T05:22:43.944Z,0
2018-03-06T05:23:24.499Z,0
2018-03-06T05:24:05.073Z,0
2018-03-06T05:24:45.629Z,0
2018-03-06T05:25:26.188Z,0
2018-03-06T05:26:06.804Z,0
2018-03-06T05:26:47.334Z,0
2018-03-06T05:27:27.892Z,0
2018-03-06T05:28:08.466Z,0
2018-03-06T05:28:48.997Z,0
2018-03-06T05:29:29.563Z,0
2018-03-06T05:30:10.148Z,0
2018-03-06T05:30:50.691Z,0
2018-03-06T05:31:31.246Z,0
2018-03-06T05:32:11.834Z,0
2018-03-06T05:32:52.373Z,0
2018-03-06T05:33:32.921Z,0
2018-03-06T05:34:13.472Z,0
2018-03-06T05:34:54.018Z,0
2018-03-06T05:35:34.572Z,0
2018-03-06T05:36:15.125Z,0
2018-03-06T05:36:55.681Z,0
2018-03-06T05:37:36.247Z,0
2018-03-06T05:38:16.879Z,0
2018-03-06T05:38:57.354Z,0
2018-03-06T05:39:37.923Z,0
2018-03-06T05:40:18.477Z,0
2018-03-06T05:40:59.053Z,0
2018-03-06T05:41:39.594Z,0
2018-03-06T05:42:20.153Z,0
2018-03-06T05:43:00.704Z,0
2018-03-06T05:43:41.298Z,0
2018-03-06T05:44:21.867Z,0
2018-03-06T05:45:02.413Z,0
2018-03-06T05:45:42.970Z,5
2018-03-06T05:46:23.513Z,5
2018-03-06T05:47:04.053Z,5
2018-03-06T05:47:44.614Z,5
2018-03-06T05:48:25.164Z,5
2018-03-06T05:49:05.729Z,5
2018-03-06T05:49:46.262Z,5
2018-03-06T05:50:26.933Z,5
2018-03-06T05:54:38.159Z,10
2018-03-06T05:55:18.724Z,10
2018-03-06T05:55:59.328Z,10
2018-03-06T05:56:39.911Z,10
2018-03-06T05:57:20.528Z,10
2018-03-06T05:58:01.105Z,10
2018-03-06T05:58:41.656Z,15
2018-03-06T05:59:22.264Z,15
2018-03-06T06:00:02.809Z,15
2018-03-06T06:00:43.358Z,15
2018-03-06T06:01:23.913Z,15
2018-03-06T06:02:04.467Z,15
2018-03-06T06:02:45.029Z,15
2018-03-06T06:03:25.608Z,20
2018-03-06T06:04:06.151Z,20
2018-03-06T06:04:46.700Z,20
2018-03-06T06:05:27.272Z,20
2018-03-06T06:06:07.890Z,20
2018-03-06T06:06:48.440Z,20
2018-03-06T06:07:29.014Z,25
2018-03-06T06:08:09.558Z,25
2018-03-06T06:08:50.172Z,25
2018-03-06T06:09:30.721Z,25
2018-03-06T06:10:11.271Z,25
2018-03-06T06:10:51.874Z,30
2018-03-06T06:11:32.422Z,30
2018-03-06T06:12:12.970Z,30
2018-03-06T06:12:53.519Z,30
2018-03-06T06:13:34.154Z,30
2018-03-06T06:14:14.718Z,35
2018-03-06T06:14:55.268Z,35
2018-03-06T06:15:35.877Z,35
2018-03-06T06:16:16.432Z,35
2018-03-06T06:16:57.042Z,35
2018-03-06T06:17:37.581Z,35
2018-03-06T06:18:18.196Z,40
2018-03-06T06:18:58.752Z,40
2018-03-06T06:19:39.303Z,40
2018-03-06T06:20:19.852Z,40
2018-03-06T06:21:00.465Z,45
2018-03-06T06:21:41.079Z,45
2018-03-06T06:22:21.574Z,45
2018-03-06T06:23:02.132Z,45
2018-03-06T06:23:42.678Z,45
2018-03-06T06:24:23.233Z,45
2018-03-06T06:25:03.783Z,45
2018-03-06T06:25:44.335Z,50
2018-03-06T06:26:24.898Z,50
2018-03-06T06:27:05.463Z,50
2018-03-06T06:27:46.018Z,50
2018-03-06T06:28:26.679Z,50
2018-03-06T06:29:07.375Z,50
2018-03-06T06:29:47.945Z,50
2018-03-06T06:30:28.484Z,50
2018-03-06T06:31:09.114Z,50
2018-03-06T06:31:49.686Z,50
2018-03-06T06:32:30.259Z,50
2018-03-06T06:33:10.817Z,55
2018-03-06T06:33:51.351Z,55
2018-03-06T06:34:31.904Z,55
2018-03-06T06:35:12.453Z,55
2018-03-06T06:35:53.159Z,55
2018-03-06T06:36:33.722Z,55
2018-03-06T06:37:14.270Z,55
2018-03-06T06:37:54.831Z,55
2018-03-06T06:38:35.416Z,60
2018-03-06T06:39:16.003Z,60
2018-03-06T06:39:56.537Z,60
2018-03-06T06:40:37.170Z,60
2018-03-06T06:41:17.721Z,60
2018-03-06T06:41:58.273Z,60
2018-03-06T06:42:38.824Z,60
2018-03-06T06:43:19.375Z,65
2018-03-06T06:43:59.924Z,65
2018-03-06T06:44:40.521Z,65
2018-03-06T06:45:21.102Z,65
2018-03-06T06:46:01.671Z,65
2018-03-06T06:46:42.250Z,70
2018-03-06T06:47:22.814Z,70
2018-03-06T06:48:03.365Z,70
2018-03-06T06:48:43.919Z,70
2018-03-06T06:49:24.515Z,70
2018-03-06T06:50:05.071Z,75
2018-03-06T06:50:45.618Z,75
2018-03-06T06:51:26.473Z,75
2018-03-06T06:52:07.056Z,75
2018-03-06T06:52:47.576Z,75
2018-03-06T06:53:28.142Z,75
2018-03-06T06:54:08.935Z,80
2018-03-06T06:54:49.400Z,80
2018-03-06T06:55:30.051Z,80
2018-03-06T06:56:10.622Z,80
2018-03-06T06:56:52.211Z,85
2018-03-06T06:57:32.762Z,85
2018-03-06T06:58:13.452Z,85
2018-03-06T06:58:54.021Z,85
2018-03-06T06:59:34.590Z,90
2018-03-06T07:00:15.137Z,90
2018-03-06T07:00:55.720Z,90
2018-03-06T07:01:37.357Z,95
2018-03-06T07:02:17.933Z,95
2018-03-06T07:02:58.483Z,95
2018-03-06T07:03:39.270Z,100
2018-03-06T07:04:19.836Z,100
2018-03-06T07:05:00.415Z,100
2018-03-06T07:05:40.989Z,100
2018-03-06T07:06:21.553Z,100
2018-03-06T07:07:02.173Z,100
2018-03-06T07:07:42.796Z,100
2018-03-06T07:08:23.347Z,105
2018-03-06T07:09:03.923Z,105
2018-03-06T07:09:44.456Z,105
2018-03-06T07:10:25.032Z,110
2018-03-06T07:11:05.583Z,110
2018-03-06T07:11:46.139Z,110
2018-03-06T07:12:26.700Z,115
2018-03-06T07:13:07.273Z,115
2018-03-06T07:13:47.918Z,115
2018-03-06T07:14:28.471Z,115
2018-03-06T07:15:09.027Z,115
2018-03-06T07:15:49.573Z,115
2018-03-06T07:16:30.122Z,120
2018-03-06T07:17:10.677Z,120
2018-03-06T07:17:51.242Z,120
2018-03-06T07:18:31.802Z,120
2018-03-06T07:19:12.527Z,125
2018-03-06T07:19:53.080Z,125
2018-03-06T07:20:33.645Z,125
2018-03-06T07:21:14.261Z,125
2018-03-06T07:21:54.793Z,125
2018-03-06T07:22:35.386Z,130
2018-03-06T07:23:16.019Z,130
2018-03-06T07:23:56.584Z,125
2018-03-06T07:24:37.175Z,130
2018-03-06T07:25:17.773Z,130
2018-03-06T07:25:58.328Z,135
2018-03-06T07:26:38.873Z,135
2018-03-06T07:27:19.435Z,135
2018-03-06T07:27:59.994Z,135
2018-03-06T07:28:40.548Z,140
2018-03-06T07:29:21.105Z,140
2018-03-06T07:30:01.719Z,140
2018-03-06T07:30:42.277Z,140
2018-03-06T07:31:22.832Z,140
2018-03-06T07:32:03.396Z,145
2018-03-06T07:32:43.952Z,150
2018-03-06T07:33:24.526Z,155
2018-03-06T07:34:05.078Z,160
2018-03-06T07:34:45.631Z,165
2018-03-06T07:35:26.290Z,175
2018-03-06T07:36:06.845Z,195
2018-03-06T07:36:47.394Z,230
2018-03-06T07:37:28.039Z,270
2018-03-06T07:38:08.619Z,295
2018-03-06T07:38:49.152Z,300
2018-03-06T07:39:29.751Z,290
2018-03-06T07:40:10.346Z,255
2018-03-06T07:40:50.917Z,255
2018-03-06T07:41:31.470Z,260
2018-03-06T07:42:12.035Z,280
2018-03-06T07:42:52.647Z,295
2018-03-06T07:43:33.198Z,290
2018-03-06T07:44:13.755Z,310
2018-03-06T07:44:54.355Z,315
2018-03-06T07:45:34.937Z,305
2018-03-06T07:46:15.490Z,265
2018-03-06T07:46:56.106Z,260
2018-03-06T07:47:36.720Z,255
2018-03-06T07:48:17.371Z,250
2018-03-06T07:48:57.968Z,250
2018-03-06T07:49:38.499Z,250
2018-03-06T07:50:19.056Z,270
2018-03-06T07:50:59.614Z,285
2018-03-06T07:51:40.164Z,310
2018-03-06T07:52:20.729Z,305
2018-03-06T07:53:01.284Z,330
2018-03-06T07:53:41.844Z,325
2018-03-06T07:54:22.428Z,325
2018-03-06T07:55:03.063Z,330
2018-03-06T07:55:43.616Z,395
2018-03-06T07:56:24.191Z,410
2018-03-06T07:57:04.771Z,415
2018-03-06T07:57:45.337Z,410
2018-03-06T07:58:25.901Z,435
2018-03-06T07:59:06.460Z,465
2018-03-06T07:59:47.032Z,450
2018-03-06T08:00:27.601Z,435
2018-03-06T08:01:08.185Z,475
2018-03-06T08:01:48.740Z,475
2018-03-06T08:02:29.320Z,380
2018-03-06T08:03:09.837Z,395
2018-03-06T08:03:50.393Z,440
2018-03-06T08:04:30.954Z,425
2018-03-06T08:05:11.536Z,440
2018-03-06T08:05:52.131Z,425
2018-03-06T08:06:32.772Z,425
2018-03-06T08:07:13.259Z,430
2018-03-06T08:07:53.869Z,440
2018-03-06T08:08:34.513Z,455
2018-03-06T08:09:15.063Z,480
2018-03-06T08:09:55.609Z,495
2018-03-06T08:10:36.207Z,475
2018-03-06T08:11:16.763Z,480
2018-03-06T08:11:57.499Z,475
2018-03-06T08:12:38.005Z,480
2018-03-06T08:13:18.551Z,510
2018-03-06T08:13:59.110Z,535
2018-03-06T08:14:39.676Z,520
2018-03-06T08:15:20.234Z,515
2018-03-06T08:16:00.792Z,520
2018-03-06T08:16:41.367Z,520
2018-03-06T08:17:21.959Z,490
2018-03-06T08:18:02.503Z,475
2018-03-06T08:18:43.060Z,460
2018-03-06T08:19:23.623Z,485
2018-03-06T08:20:04.212Z,485
2018-03-06T08:20:44.822Z,485
2018-03-06T08:21:25.547Z,495
2018-03-06T08:22:06.145Z,495
2018-03-06T08:22:46.707Z,505
2018-03-06T08:23:27.271Z,500
2018-03-06T08:24:07.829Z,505
2018-03-06T08:24:48.403Z,515
2018-03-06T08:25:28.969Z,525
2018-03-06T08:26:09.525Z,525
2018-03-06T08:26:50.106Z,525
2018-03-06T08:27:30.659Z,535
2018-03-06T08:28:11.216Z,505
2018-03-06T08:28:51.792Z,500
2018-03-06T08:29:32.341Z,470
2018-03-06T08:30:12.919Z,470
2018-03-06T08:30:53.479Z,455
2018-03-06T08:31:34.038Z,450
2018-03-06T08:32:14.620Z,450
2018-03-06T08:32:55.177Z,445
2018-03-06T08:33:35.747Z,435
2018-03-06T08:34:16.298Z,420
2018-03-06T08:34:56.872Z,400
2018-03-06T08:35:37.439Z,390
2018-03-06T08:36:17.995Z,395
2018-03-06T08:36:58.549Z,400
2018-03-06T08:37:39.148Z,425
2018-03-06T08:38:19.719Z,415
2018-03-06T08:39:00.281Z,415
2018-03-06T08:39:40.844Z,420
2018-03-06T08:40:21.400Z,405
2018-03-06T08:41:01.994Z,400
2018-03-06T08:41:42.556Z,400
2018-03-06T08:42:23.110Z,410
2018-03-06T08:43:03.677Z,390
2018-03-06T08:43:44.261Z,360
2018-03-06T08:44:25.391Z,380
2018-03-06T08:45:05.952Z,375
2018-03-06T08:45:46.506Z,350
2018-03-06T08:46:27.065Z,345
2018-03-06T08:47:07.635Z,350
2018-03-06T08:47:48.200Z,335
2018-03-06T08:48:28.760Z,325
2018-03-06T08:49:09.331Z,295
2018-03-06T08:49:49.937Z,265
2018-03-06T08:50:30.507Z,245
2018-03-06T08:51:11.087Z,245
2018-03-06T08:51:51.663Z,230
2018-03-06T08:52:32.237Z,220
2018-03-06T08:53:12.798Z,215
2018-03-06T08:53:53.345Z,215
2018-03-06T08:54:33.913Z,200
2018-03-06T08:55:14.579Z,205
2018-03-06T08:55:55.168Z,200
2018-03-06T08:56:35.865Z,195
2018-03-06T08:57:16.446Z,195
2018-03-06T08:57:57.042Z,195
2018-03-06T08:58:37.640Z,195
2018-03-06T08:59:18.198Z,195
2018-03-06T08:59:58.764Z,200
2018-03-06T09:00:39.351Z,195
2018-03-06T09:01:19.913Z,195
2018-03-06T09:02:00.470Z,190
2018-03-06T09:02:41.054Z,185
2018-03-06T09:03:21.601Z,185
2018-03-06T09:04:02.201Z,185
2018-03-06T09:04:42.863Z,180
2018-03-06T09:05:23.438Z,175
2018-03-06T09:06:03.996Z,170
2018-03-06T09:06:44.558Z,170
2018-03-06T09:07:25.112Z,170
2018-03-06T09:08:05.678Z,165
2018-03-06T09:08:46.226Z,165
2018-03-06T09:09:26.808Z,160
2018-03-06T09:10:07.380Z,160
2018-03-06T09:10:47.930Z,160
2018-03-06T09:11:28.499Z,160
2018-03-06T09:12:09.076Z,165
2018-03-06T09:12:49.628Z,165
2018-03-06T09:13:30.214Z,160
2018-03-06T09:14:10.784Z,165
2018-03-06T09:14:51.365Z,155
2018-03-06T09:15:31.927Z,160
2018-03-06T09:16:12.501Z,160
2018-03-06T09:16:53.322Z,165
2018-03-06T09:17:33.884Z,160
2018-03-06T09:18:14.443Z,160
2018-03-06T09:18:55.025Z,165
2018-03-06T09:19:35.573Z,160
2018-03-06T09:20:16.136Z,155
2018-03-06T09:20:56.691Z,155
2018-03-06T09:21:37.247Z,160
2018-03-06T09:22:17.804Z,160
2018-03-06T09:22:58.395Z,160
2018-03-06T09:23:38.963Z,160
2018-03-06T09:24:19.597Z,160
2018-03-06T09:25:00.152Z,160
2018-03-06T09:25:40.728Z,160
2018-03-06T09:26:21.310Z,160
2018-03-06T09:27:01.865Z,160
2018-03-06T09:27:42.431Z,160
2018-03-06T09:28:22.974Z,160
2018-03-06T09:29:03.616Z,160
2018-03-06T09:29:44.182Z,165
2018-03-06T09:30:24.757Z,155
2018-03-06T09:31:05.314Z,160
2018-03-06T09:31:45.882Z,155
2018-03-06T09:32:26.465Z,150
2018-03-06T09:33:07.023Z,155
2018-03-06T09:33:47.591Z,160
2018-03-06T09:34:28.179Z,150
2018-03-06T09:35:08.747Z,150
2018-03-06T09:35:49.455Z,150
2018-03-06T09:36:30.009Z,150
2018-03-06T09:37:10.563Z,150
2018-03-06T09:37:51.108Z,140
2018-03-06T09:38:31.679Z,140
2018-03-06T09:39:12.277Z,140
2018-03-06T09:39:52.882Z,135
2018-03-06T09:40:33.474Z,135
2018-03-06T09:41:14.102Z,135
2018-03-06T09:41:54.680Z,135
2018-03-06T09:42:35.242Z,135
2018-03-06T09:43:15.982Z,135
2018-03-06T09:43:56.601Z,135
2018-03-06T09:44:37.188Z,135
2018-03-06T09:45:17.780Z,135
2018-03-06T09:45:58.356Z,135
2018-03-06T09:46:38.988Z,135
2018-03-06T09:47:19.578Z,135
2018-03-06T09:48:00.241Z,135
2018-03-06T09:48:40.861Z,135